sensor_id;sensor_type;location;lat;lon;timestamp;P1;durP1;ratioP1;P2;durP2;ratioP2
52776;SDS011;38656;54.260;20.822;2023-05-07T00:01:14;5.75;;;4.68;;
52776;SDS011;38656;54.260;20.822;2023-05-07T00:03:40;6.63;;;4.30;;
52776;SDS011;38656;54.260;20.822;2023-05-07T00:06:06;14.30;;;9.48;;
52776;SDS011;38656;54.260;20.822;2023-05-07T00:08:33;9.32;;;7.68;;
52776;SDS011;38656;54.260;20.822;2023-05-07T00:10:59;4.32;;;3.90;;
52776;SDS011;38656;54.260;20.822;2023-05-07T00:13:25;12.27;;;5.28;;
52776;SDS011;38656;54.260;20.822;2023-05-07T00:15:52;6.55;;;4.78;;
52776;SDS011;38656;54.260;20.822;2023-05-07T00:18:18;9.45;;;6.20;;
52776;SDS011;38656;54.260;20.822;2023-05-07T00:20:47;11.93;;;5.25;;
52776;SDS011;38656;54.260;20.822;2023-05-07T00:23:13;10.18;;;5.43;;
52776;SDS011;38656;54.260;20.822;2023-05-07T00:25:39;11.10;;;5.55;;
52776;SDS011;38656;54.260;20.822;2023-05-07T00:28:05;10.27;;;5.63;;
52776;SDS011;38656;54.260;20.822;2023-05-07T00:30:32;17.42;;;6.03;;
52776;SDS011;38656;54.260;20.822;2023-05-07T00:32:58;8.32;;;6.40;;
52776;SDS011;38656;54.260;20.822;2023-05-07T00:35:24;9.70;;;6.53;;
52776;SDS011;38656;54.260;20.822;2023-05-07T00:37:50;10.10;;;5.95;;
52776;SDS011;38656;54.260;20.822;2023-05-07T00:40:16;6.53;;;5.00;;
52776;SDS011;38656;54.260;20.822;2023-05-07T00:42:43;14.15;;;4.50;;
52776;SDS011;38656;54.260;20.822;2023-05-07T00:45:12;7.13;;;4.60;;
52776;SDS011;38656;54.260;20.822;2023-05-07T00:47:39;7.78;;;5.15;;
52776;SDS011;38656;54.260;20.822;2023-05-07T00:50:06;8.90;;;6.43;;
52776;SDS011;38656;54.260;20.822;2023-05-07T00:52:33;14.20;;;6.55;;
52776;SDS011;38656;54.260;20.822;2023-05-07T00:55:04;9.68;;;5.53;;
52776;SDS011;38656;54.260;20.822;2023-05-07T00:57:37;9.35;;;5.15;;
52776;SDS011;38656;54.260;20.822;2023-05-07T01:00:06;7.70;;;5.00;;
52776;SDS011;38656;54.260;20.822;2023-05-07T01:02:34;6.45;;;4.22;;
52776;SDS011;38656;54.260;20.822;2023-05-07T01:05:02;7.88;;;5.10;;
52776;SDS011;38656;54.260;20.822;2023-05-07T01:07:31;8.00;;;3.67;;
52776;SDS011;38656;54.260;20.822;2023-05-07T01:09:58;6.97;;;4.35;;
52776;SDS011;38656;54.260;20.822;2023-05-07T01:12:25;6.13;;;4.07;;
52776;SDS011;38656;54.260;20.822;2023-05-07T01:14:53;6.22;;;3.95;;
52776;SDS011;38656;54.260;20.822;2023-05-07T01:17:20;7.72;;;4.57;;
52776;SDS011;38656;54.260;20.822;2023-05-07T01:19:46;9.52;;;4.80;;
52776;SDS011;38656;54.260;20.822;2023-05-07T01:22:13;12.63;;;3.78;;
52776;SDS011;38656;54.260;20.822;2023-05-07T01:24:45;8.23;;;3.17;;
52776;SDS011;38656;54.260;20.822;2023-05-07T01:27:12;3.90;;;3.50;;
52776;SDS011;38656;54.260;20.822;2023-05-07T01:29:38;6.00;;;3.72;;
52776;SDS011;38656;54.260;20.822;2023-05-07T01:32:04;4.85;;;3.38;;
52776;SDS011;38656;54.260;20.822;2023-05-07T01:34:32;5.57;;;3.85;;
52776;SDS011;38656;54.260;20.822;2023-05-07T01:37:01;4.72;;;3.42;;
52776;SDS011;38656;54.260;20.822;2023-05-07T01:39:28;5.07;;;3.30;;
52776;SDS011;38656;54.260;20.822;2023-05-07T01:41:55;10.18;;;3.83;;
52776;SDS011;38656;54.260;20.822;2023-05-07T01:44:24;4.28;;;3.42;;
52776;SDS011;38656;54.260;20.822;2023-05-07T01:46:51;6.38;;;3.65;;
52776;SDS011;38656;54.260;20.822;2023-05-07T01:49:18;6.38;;;4.53;;
52776;SDS011;38656;54.260;20.822;2023-05-07T01:51:44;7.95;;;3.75;;
52776;SDS011;38656;54.260;20.822;2023-05-07T01:54:11;11.85;;;4.03;;
52776;SDS011;38656;54.260;20.822;2023-05-07T01:56:38;11.52;;;4.78;;
52776;SDS011;38656;54.260;20.822;2023-05-07T01:59:04;9.52;;;5.18;;
52776;SDS011;38656;54.260;20.822;2023-05-07T02:01:30;5.28;;;4.38;;
52776;SDS011;38656;54.260;20.822;2023-05-07T02:03:56;7.47;;;4.90;;
52776;SDS011;38656;54.260;20.822;2023-05-07T02:06:22;7.68;;;4.00;;
52776;SDS011;38656;54.260;20.822;2023-05-07T02:08:49;11.38;;;3.90;;
52776;SDS011;38656;54.260;20.822;2023-05-07T02:11:15;4.15;;;3.58;;
52776;SDS011;38656;54.260;20.822;2023-05-07T02:13:41;9.20;;;4.20;;
52776;SDS011;38656;54.260;20.822;2023-05-07T02:16:07;4.15;;;3.72;;
52776;SDS011;38656;54.260;20.822;2023-05-07T02:18:34;5.95;;;3.75;;
52776;SDS011;38656;54.260;20.822;2023-05-07T02:21:00;3.47;;;3.13;;
52776;SDS011;38656;54.260;20.822;2023-05-07T02:23:27;8.45;;;3.50;;
52776;SDS011;38656;54.260;20.822;2023-05-07T02:25:53;5.47;;;3.50;;
52776;SDS011;38656;54.260;20.822;2023-05-07T02:28:19;5.40;;;3.15;;
52776;SDS011;38656;54.260;20.822;2023-05-07T02:30:45;4.68;;;3.75;;
52776;SDS011;38656;54.260;20.822;2023-05-07T02:33:11;19.17;;;4.65;;
52776;SDS011;38656;54.260;20.822;2023-05-07T02:35:38;4.95;;;3.53;;
52776;SDS011;38656;54.260;20.822;2023-05-07T02:38:05;5.60;;;3.47;;
52776;SDS011;38656;54.260;20.822;2023-05-07T02:40:31;10.27;;;3.65;;
52776;SDS011;38656;54.260;20.822;2023-05-07T02:43:03;6.15;;;3.40;;
52776;SDS011;38656;54.260;20.822;2023-05-07T02:45:30;4.88;;;3.40;;
52776;SDS011;38656;54.260;20.822;2023-05-07T02:47:57;7.07;;;3.63;;
52776;SDS011;38656;54.260;20.822;2023-05-07T02:50:24;5.88;;;2.63;;
52776;SDS011;38656;54.260;20.822;2023-05-07T02:52:51;7.32;;;3.85;;
52776;SDS011;38656;54.260;20.822;2023-05-07T02:55:17;7.65;;;3.85;;
52776;SDS011;38656;54.260;20.822;2023-05-07T02:57:43;9.18;;;3.72;;
52776;SDS011;38656;54.260;20.822;2023-05-07T03:00:11;6.30;;;3.75;;
52776;SDS011;38656;54.260;20.822;2023-05-07T03:02:46;4.45;;;3.38;;
52776;SDS011;38656;54.260;20.822;2023-05-07T03:05:13;3.97;;;3.58;;
52776;SDS011;38656;54.260;20.822;2023-05-07T03:07:39;7.13;;;3.63;;
52776;SDS011;38656;54.260;20.822;2023-05-07T03:10:09;6.18;;;3.38;;
52776;SDS011;38656;54.260;20.822;2023-05-07T03:12:35;7.50;;;4.10;;
52776;SDS011;38656;54.260;20.822;2023-05-07T03:15:01;8.25;;;3.83;;
52776;SDS011;38656;54.260;20.822;2023-05-07T03:17:27;8.60;;;4.57;;
52776;SDS011;38656;54.260;20.822;2023-05-07T03:19:54;8.85;;;7.38;;
52776;SDS011;38656;54.260;20.822;2023-05-07T03:22:20;10.85;;;8.93;;
52776;SDS011;38656;54.260;20.822;2023-05-07T03:24:46;11.73;;;10.55;;
52776;SDS011;38656;54.260;20.822;2023-05-07T03:27:12;10.55;;;9.50;;
52776;SDS011;38656;54.260;20.822;2023-05-07T03:29:38;9.35;;;8.38;;
52776;SDS011;38656;54.260;20.822;2023-05-07T03:32:05;12.00;;;6.25;;
52776;SDS011;38656;54.260;20.822;2023-05-07T03:34:31;7.00;;;5.35;;
52776;SDS011;38656;54.260;20.822;2023-05-07T03:36:57;6.10;;;5.40;;
52776;SDS011;38656;54.260;20.822;2023-05-07T03:39:23;6.47;;;4.95;;
52776;SDS011;38656;54.260;20.822;2023-05-07T03:41:50;13.30;;;7.72;;
52776;SDS011;38656;54.260;20.822;2023-05-07T03:44:16;14.90;;;9.07;;
52776;SDS011;38656;54.260;20.822;2023-05-07T03:46:42;17.83;;;11.23;;
52776;SDS011;38656;54.260;20.822;2023-05-07T03:49:08;21.58;;;13.07;;
52776;SDS011;38656;54.260;20.822;2023-05-07T03:51:34;17.67;;;11.40;;
52776;SDS011;38656;54.260;20.822;2023-05-07T03:54:01;11.88;;;7.82;;
52776;SDS011;38656;54.260;20.822;2023-05-07T03:56:27;13.32;;;9.40;;
52776;SDS011;38656;54.260;20.822;2023-05-07T03:58:53;13.73;;;7.25;;
52776;SDS011;38656;54.260;20.822;2023-05-07T04:01:20;10.73;;;7.45;;
52776;SDS011;38656;54.260;20.822;2023-05-07T04:03:46;8.80;;;5.68;;
52776;SDS011;38656;54.260;20.822;2023-05-07T04:06:12;7.22;;;5.35;;
52776;SDS011;38656;54.260;20.822;2023-05-07T04:08:40;7.63;;;5.30;;
52776;SDS011;38656;54.260;20.822;2023-05-07T04:11:06;5.05;;;4.43;;
52776;SDS011;38656;54.260;20.822;2023-05-07T04:13:32;9.27;;;5.35;;
52776;SDS011;38656;54.260;20.822;2023-05-07T04:16:00;10.45;;;5.57;;
52776;SDS011;38656;54.260;20.822;2023-05-07T04:18:28;7.70;;;4.57;;
52776;SDS011;38656;54.260;20.822;2023-05-07T04:20:54;9.57;;;4.90;;
52776;SDS011;38656;54.260;20.822;2023-05-07T04:23:23;7.20;;;4.00;;
52776;SDS011;38656;54.260;20.822;2023-05-07T04:25:50;7.15;;;3.70;;
52776;SDS011;38656;54.260;20.822;2023-05-07T04:28:16;21.15;;;10.23;;
52776;SDS011;38656;54.260;20.822;2023-05-07T04:30:52;14.73;;;7.15;;
52776;SDS011;38656;54.260;20.822;2023-05-07T04:33:18;8.57;;;5.57;;
52776;SDS011;38656;54.260;20.822;2023-05-07T04:35:44;8.35;;;4.32;;
52776;SDS011;38656;54.260;20.822;2023-05-07T04:38:11;8.73;;;3.88;;
52776;SDS011;38656;54.260;20.822;2023-05-07T04:40:37;4.82;;;4.32;;
52776;SDS011;38656;54.260;20.822;2023-05-07T04:43:04;7.05;;;3.38;;
52776;SDS011;38656;54.260;20.822;2023-05-07T04:45:30;4.13;;;2.95;;
52776;SDS011;38656;54.260;20.822;2023-05-07T04:47:56;5.13;;;4.07;;
52776;SDS011;38656;54.260;20.822;2023-05-07T04:50:23;7.03;;;4.18;;
52776;SDS011;38656;54.260;20.822;2023-05-07T04:52:50;7.32;;;5.93;;
52776;SDS011;38656;54.260;20.822;2023-05-07T04:55:16;6.30;;;4.20;;
52776;SDS011;38656;54.260;20.822;2023-05-07T04:57:42;8.07;;;6.55;;
52776;SDS011;38656;54.260;20.822;2023-05-07T05:00:08;4.30;;;3.90;;
52776;SDS011;38656;54.260;20.822;2023-05-07T05:02:35;6.00;;;3.10;;
52776;SDS011;38656;54.260;20.822;2023-05-07T05:05:01;8.52;;;3.80;;
52776;SDS011;38656;54.260;20.822;2023-05-07T05:07:28;4.22;;;2.88;;
52776;SDS011;38656;54.260;20.822;2023-05-07T05:10:01;3.72;;;3.03;;
52776;SDS011;38656;54.260;20.822;2023-05-07T05:12:28;6.03;;;3.08;;
52776;SDS011;38656;54.260;20.822;2023-05-07T05:14:55;3.65;;;2.55;;
52776;SDS011;38656;54.260;20.822;2023-05-07T05:17:21;3.50;;;2.67;;
52776;SDS011;38656;54.260;20.822;2023-05-07T05:19:48;5.75;;;3.45;;
52776;SDS011;38656;54.260;20.822;2023-05-07T05:22:14;6.93;;;3.40;;
52776;SDS011;38656;54.260;20.822;2023-05-07T05:24:40;4.80;;;3.45;;
52776;SDS011;38656;54.260;20.822;2023-05-07T05:27:07;4.30;;;2.70;;
52776;SDS011;38656;54.260;20.822;2023-05-07T05:29:33;7.95;;;3.63;;
52776;SDS011;38656;54.260;20.822;2023-05-07T05:31:59;5.30;;;3.78;;
52776;SDS011;38656;54.260;20.822;2023-05-07T05:34:25;3.85;;;2.88;;
52776;SDS011;38656;54.260;20.822;2023-05-07T05:36:52;5.05;;;2.78;;
52776;SDS011;38656;54.260;20.822;2023-05-07T05:39:21;8.65;;;3.50;;
52776;SDS011;38656;54.260;20.822;2023-05-07T05:41:48;4.20;;;2.72;;
52776;SDS011;38656;54.260;20.822;2023-05-07T05:44:14;5.53;;;3.30;;
52776;SDS011;38656;54.260;20.822;2023-05-07T05:46:43;4.10;;;3.10;;
52776;SDS011;38656;54.260;20.822;2023-05-07T05:49:09;4.10;;;2.83;;
52776;SDS011;38656;54.260;20.822;2023-05-07T05:51:36;4.50;;;2.85;;
52776;SDS011;38656;54.260;20.822;2023-05-07T05:54:02;4.47;;;3.15;;
52776;SDS011;38656;54.260;20.822;2023-05-07T05:56:28;3.20;;;2.97;;
52776;SDS011;38656;54.260;20.822;2023-05-07T05:58:54;8.35;;;3.20;;
52776;SDS011;38656;54.260;20.822;2023-05-07T06:01:21;6.38;;;2.83;;
52776;SDS011;38656;54.260;20.822;2023-05-07T06:03:47;3.75;;;2.50;;
52776;SDS011;38656;54.260;20.822;2023-05-07T06:06:13;3.55;;;2.90;;
52776;SDS011;38656;54.260;20.822;2023-05-07T06:08:39;4.45;;;3.05;;
52776;SDS011;38656;54.260;20.822;2023-05-07T06:11:05;4.05;;;3.08;;
52776;SDS011;38656;54.260;20.822;2023-05-07T06:13:32;7.20;;;3.08;;
52776;SDS011;38656;54.260;20.822;2023-05-07T06:15:58;5.40;;;3.50;;
52776;SDS011;38656;54.260;20.822;2023-05-07T06:18:24;4.90;;;3.45;;
52776;SDS011;38656;54.260;20.822;2023-05-07T06:20:51;3.40;;;2.80;;
52776;SDS011;38656;54.260;20.822;2023-05-07T06:23:18;4.25;;;3.10;;
52776;SDS011;38656;54.260;20.822;2023-05-07T06:25:50;5.10;;;2.20;;
52776;SDS011;38656;54.260;20.822;2023-05-07T06:28:17;2.70;;;2.50;;
52776;SDS011;38656;54.260;20.822;2023-05-07T06:30:43;3.38;;;2.72;;
52776;SDS011;38656;54.260;20.822;2023-05-07T06:33:10;4.78;;;2.40;;
52776;SDS011;38656;54.260;20.822;2023-05-07T06:35:36;4.93;;;2.90;;
52776;SDS011;38656;54.260;20.822;2023-05-07T06:38:02;4.30;;;2.47;;
52776;SDS011;38656;54.260;20.822;2023-05-07T06:40:28;2.75;;;2.33;;
52776;SDS011;38656;54.260;20.822;2023-05-07T06:42:54;3.55;;;2.83;;
52776;SDS011;38656;54.260;20.822;2023-05-07T06:45:20;2.25;;;2.05;;
52776;SDS011;38656;54.260;20.822;2023-05-07T06:47:47;3.75;;;2.28;;
52776;SDS011;38656;54.260;20.822;2023-05-07T06:50:13;2.55;;;2.35;;
52776;SDS011;38656;54.260;20.822;2023-05-07T06:52:47;2.53;;;2.33;;
52776;SDS011;38656;54.260;20.822;2023-05-07T06:55:13;3.85;;;2.85;;
52776;SDS011;38656;54.260;20.822;2023-05-07T06:57:40;5.43;;;3.67;;
52776;SDS011;38656;54.260;20.822;2023-05-07T07:00:06;5.07;;;3.95;;
52776;SDS011;38656;54.260;20.822;2023-05-07T07:02:34;2.38;;;2.17;;
52776;SDS011;38656;54.260;20.822;2023-05-07T07:05:01;6.95;;;3.10;;
52776;SDS011;38656;54.260;20.822;2023-05-07T07:07:27;3.72;;;3.03;;
52776;SDS011;38656;54.260;20.822;2023-05-07T07:09:53;7.45;;;3.25;;
52776;SDS011;38656;54.260;20.822;2023-05-07T07:12:20;3.22;;;2.40;;
52776;SDS011;38656;54.260;20.822;2023-05-07T07:14:47;6.63;;;2.45;;
52776;SDS011;38656;54.260;20.822;2023-05-07T07:17:13;2.53;;;2.25;;
52776;SDS011;38656;54.260;20.822;2023-05-07T07:19:39;4.55;;;2.50;;
52776;SDS011;38656;54.260;20.822;2023-05-07T07:22:06;2.65;;;2.25;;
52776;SDS011;38656;54.260;20.822;2023-05-07T07:24:32;2.85;;;2.30;;
52776;SDS011;38656;54.260;20.822;2023-05-07T07:26:58;6.50;;;2.30;;
52776;SDS011;38656;54.260;20.822;2023-05-07T07:29:25;3.33;;;2.22;;
52776;SDS011;38656;54.260;20.822;2023-05-07T07:31:52;4.97;;;2.13;;
52776;SDS011;38656;54.260;20.822;2023-05-07T07:34:18;4.53;;;3.00;;
52776;SDS011;38656;54.260;20.822;2023-05-07T07:36:44;3.90;;;2.42;;
52776;SDS011;38656;54.260;20.822;2023-05-07T07:39:10;3.17;;;2.22;;
52776;SDS011;38656;54.260;20.822;2023-05-07T07:41:36;5.57;;;2.38;;
52776;SDS011;38656;54.260;20.822;2023-05-07T07:44:03;5.03;;;1.90;;
52776;SDS011;38656;54.260;20.822;2023-05-07T07:46:32;7.38;;;2.15;;
52776;SDS011;38656;54.260;20.822;2023-05-07T07:48:58;3.15;;;1.88;;
52776;SDS011;38656;54.260;20.822;2023-05-07T07:51:25;3.72;;;1.50;;
52776;SDS011;38656;54.260;20.822;2023-05-07T07:53:51;4.28;;;2.05;;
52776;SDS011;38656;54.260;20.822;2023-05-07T07:56:17;4.43;;;2.47;;
52776;SDS011;38656;54.260;20.822;2023-05-07T07:58:58;2.97;;;1.63;;
52776;SDS011;38656;54.260;20.822;2023-05-07T08:01:24;6.35;;;1.80;;
52776;SDS011;38656;54.260;20.822;2023-05-07T08:03:51;2.22;;;1.65;;
52776;SDS011;38656;54.260;20.822;2023-05-07T08:06:17;1.70;;;1.60;;
52776;SDS011;38656;54.260;20.822;2023-05-07T08:08:53;1.75;;;1.65;;
52776;SDS011;38656;54.260;20.822;2023-05-07T08:11:19;1.88;;;1.63;;
52776;SDS011;38656;54.260;20.822;2023-05-07T08:13:46;2.10;;;1.90;;
52776;SDS011;38656;54.260;20.822;2023-05-07T08:16:12;2.38;;;1.58;;
52776;SDS011;38656;54.260;20.822;2023-05-07T08:18:39;6.47;;;1.88;;
52776;SDS011;38656;54.260;20.822;2023-05-07T08:21:05;3.20;;;1.73;;
52776;SDS011;38656;54.260;20.822;2023-05-07T08:23:32;4.40;;;2.03;;
52776;SDS011;38656;54.260;20.822;2023-05-07T08:25:59;1.38;;;1.27;;
52776;SDS011;38656;54.260;20.822;2023-05-07T08:28:25;1.70;;;1.45;;
52776;SDS011;38656;54.260;20.822;2023-05-07T08:30:52;1.80;;;1.50;;
52776;SDS011;38656;54.260;20.822;2023-05-07T08:33:18;2.35;;;1.70;;
52776;SDS011;38656;54.260;20.822;2023-05-07T08:35:44;4.35;;;1.90;;
52776;SDS011;38656;54.260;20.822;2023-05-07T08:38:10;2.30;;;1.92;;
52776;SDS011;38656;54.260;20.822;2023-05-07T08:40:37;3.17;;;1.60;;
52776;SDS011;38656;54.260;20.822;2023-05-07T08:43:05;4.25;;;3.42;;
52776;SDS011;38656;54.260;20.822;2023-05-07T08:45:33;13.15;;;9.63;;
52776;SDS011;38656;54.260;20.822;2023-05-07T08:48:01;3.72;;;1.90;;
52776;SDS011;38656;54.260;20.822;2023-05-07T08:50:30;5.72;;;1.70;;
52776;SDS011;38656;54.260;20.822;2023-05-07T08:52:57;3.78;;;1.67;;
52776;SDS011;38656;54.260;20.822;2023-05-07T08:55:23;4.72;;;1.90;;
52776;SDS011;38656;54.260;20.822;2023-05-07T08:57:50;2.40;;;1.50;;
52776;SDS011;38656;54.260;20.822;2023-05-07T09:00:18;2.28;;;1.80;;
52776;SDS011;38656;54.260;20.822;2023-05-07T09:02:44;1.48;;;1.38;;
52776;SDS011;38656;54.260;20.822;2023-05-07T09:05:10;3.88;;;2.28;;
52776;SDS011;38656;54.260;20.822;2023-05-07T09:07:36;2.25;;;1.60;;
52776;SDS011;38656;54.260;20.822;2023-05-07T09:10:03;4.78;;;1.83;;
52776;SDS011;38656;54.260;20.822;2023-05-07T09:12:30;4.05;;;1.60;;
52776;SDS011;38656;54.260;20.822;2023-05-07T09:15:03;3.40;;;1.70;;
52776;SDS011;38656;54.260;20.822;2023-05-07T09:17:30;5.53;;;1.93;;
52776;SDS011;38656;54.260;20.822;2023-05-07T09:19:56;5.38;;;1.83;;
52776;SDS011;38656;54.260;20.822;2023-05-07T09:22:28;6.10;;;1.75;;
52776;SDS011;38656;54.260;20.822;2023-05-07T09:24:57;2.60;;;1.85;;
52776;SDS011;38656;54.260;20.822;2023-05-07T09:27:24;1.70;;;1.60;;
52776;SDS011;38656;54.260;20.822;2023-05-07T09:29:51;2.70;;;2.50;;
52776;SDS011;38656;54.260;20.822;2023-05-07T09:32:18;5.70;;;1.83;;
52776;SDS011;38656;54.260;20.822;2023-05-07T09:34:44;3.85;;;2.85;;
52776;SDS011;38656;54.260;20.822;2023-05-07T09:37:14;2.88;;;2.20;;
52776;SDS011;38656;54.260;20.822;2023-05-07T09:39:42;2.47;;;1.80;;
52776;SDS011;38656;54.260;20.822;2023-05-07T09:42:13;1.95;;;1.50;;
52776;SDS011;38656;54.260;20.822;2023-05-07T09:44:40;4.10;;;1.73;;
52776;SDS011;38656;54.260;20.822;2023-05-07T09:47:08;2.83;;;1.73;;
52776;SDS011;38656;54.260;20.822;2023-05-07T09:49:36;5.75;;;1.90;;
52776;SDS011;38656;54.260;20.822;2023-05-07T09:52:07;4.55;;;1.65;;
52776;SDS011;38656;54.260;20.822;2023-05-07T09:54:35;8.70;;;3.50;;
52776;SDS011;38656;54.260;20.822;2023-05-07T09:57:05;3.25;;;1.77;;
52776;SDS011;38656;54.260;20.822;2023-05-07T09:59:32;3.67;;;3.05;;
52776;SDS011;38656;54.260;20.822;2023-05-07T10:02:00;2.28;;;1.58;;
52776;SDS011;38656;54.260;20.822;2023-05-07T10:04:28;5.43;;;1.90;;
52776;SDS011;38656;54.260;20.822;2023-05-07T10:06:55;2.63;;;1.60;;
52776;SDS011;38656;54.260;20.822;2023-05-07T10:09:22;2.03;;;1.63;;
52776;SDS011;38656;54.260;20.822;2023-05-07T10:11:51;2.63;;;1.60;;
52776;SDS011;38656;54.260;20.822;2023-05-07T10:14:21;2.45;;;1.95;;
52776;SDS011;38656;54.260;20.822;2023-05-07T10:16:48;4.38;;;3.67;;
52776;SDS011;38656;54.260;20.822;2023-05-07T10:19:15;2.67;;;1.52;;
52776;SDS011;38656;54.260;20.822;2023-05-07T10:21:48;1.65;;;1.30;;
52776;SDS011;38656;54.260;20.822;2023-05-07T10:24:27;4.32;;;1.90;;
52776;SDS011;38656;54.260;20.822;2023-05-07T10:26:57;5.25;;;1.50;;
52776;SDS011;38656;54.260;20.822;2023-05-07T10:29:29;3.38;;;1.35;;
52776;SDS011;38656;54.260;20.822;2023-05-07T10:34:29;3.08;;;2.40;;
52776;SDS011;38656;54.260;20.822;2023-05-07T10:37:01;6.72;;;1.50;;
52776;SDS011;38656;54.260;20.822;2023-05-07T10:39:28;3.97;;;2.03;;
52776;SDS011;38656;54.260;20.822;2023-05-07T10:41:55;3.35;;;2.33;;
52776;SDS011;38656;54.260;20.822;2023-05-07T10:44:25;2.90;;;1.65;;
52776;SDS011;38656;54.260;20.822;2023-05-07T10:47:12;2.53;;;1.77;;
52776;SDS011;38656;54.260;20.822;2023-05-07T10:52:13;4.25;;;1.98;;
52776;SDS011;38656;54.260;20.822;2023-05-07T10:54:40;1.75;;;1.38;;
52776;SDS011;38656;54.260;20.822;2023-05-07T10:57:32;4.20;;;2.28;;
52776;SDS011;38656;54.260;20.822;2023-05-07T10:59:55;2.88;;;2.05;;
52776;SDS011;38656;54.260;20.822;2023-05-07T11:02:22;5.63;;;1.50;;
52776;SDS011;38656;54.260;20.822;2023-05-07T11:07:54;2.05;;;1.67;;
52776;SDS011;38656;54.260;20.822;2023-05-07T11:10:21;5.35;;;2.08;;
52776;SDS011;38656;54.260;20.822;2023-05-07T11:15:15;2.78;;;2.10;;
52776;SDS011;38656;54.260;20.822;2023-05-07T11:18:03;5.85;;;2.83;;
52776;SDS011;38656;54.260;20.822;2023-05-07T11:26:01;3.65;;;1.98;;
52776;SDS011;38656;54.260;20.822;2023-05-07T11:28:35;5.60;;;1.30;;
52776;SDS011;38656;54.260;20.822;2023-05-07T11:31:03;5.65;;;1.60;;
52776;SDS011;38656;54.260;20.822;2023-05-07T11:33:30;3.63;;;1.65;;
52776;SDS011;38656;54.260;20.822;2023-05-07T11:35:57;2.67;;;1.65;;
52776;SDS011;38656;54.260;20.822;2023-05-07T11:38:24;3.30;;;1.98;;
52776;SDS011;38656;54.260;20.822;2023-05-07T11:43:25;5.63;;;1.50;;
52776;SDS011;38656;54.260;20.822;2023-05-07T11:45:52;6.88;;;1.63;;
52776;SDS011;38656;54.260;20.822;2023-05-07T11:48:19;3.10;;;1.42;;
52776;SDS011;38656;54.260;20.822;2023-05-07T11:50:50;3.47;;;1.42;;
52776;SDS011;38656;54.260;20.822;2023-05-07T11:53:18;4.43;;;1.50;;
52776;SDS011;38656;54.260;20.822;2023-05-07T11:55:45;2.60;;;1.77;;
52776;SDS011;38656;54.260;20.822;2023-05-07T11:58:12;2.47;;;1.70;;
52776;SDS011;38656;54.260;20.822;2023-05-07T12:00:51;2.45;;;1.50;;
52776;SDS011;38656;54.260;20.822;2023-05-07T12:03:19;2.15;;;1.65;;
52776;SDS011;38656;54.260;20.822;2023-05-07T12:05:46;2.35;;;1.73;;
52776;SDS011;38656;54.260;20.822;2023-05-07T12:08:16;2.63;;;1.48;;
52776;SDS011;38656;54.260;20.822;2023-05-07T12:10:44;2.05;;;1.25;;
52776;SDS011;38656;54.260;20.822;2023-05-07T12:13:19;3.35;;;2.28;;
52776;SDS011;38656;54.260;20.822;2023-05-07T12:15:46;2.25;;;1.60;;
52776;SDS011;38656;54.260;20.822;2023-05-07T12:18:20;2.08;;;1.95;;
52776;SDS011;38656;54.260;20.822;2023-05-07T12:20:47;4.97;;;1.60;;
52776;SDS011;38656;54.260;20.822;2023-05-07T12:23:23;4.72;;;4.07;;
52776;SDS011;38656;54.260;20.822;2023-05-07T12:25:50;2.35;;;1.58;;
52776;SDS011;38656;54.260;20.822;2023-05-07T12:28:17;4.25;;;1.73;;
52776;SDS011;38656;54.260;20.822;2023-05-07T12:30:44;1.92;;;1.58;;
52776;SDS011;38656;54.260;20.822;2023-05-07T12:33:16;3.38;;;1.88;;
52776;SDS011;38656;54.260;20.822;2023-05-07T12:35:43;6.40;;;2.60;;
52776;SDS011;38656;54.260;20.822;2023-05-07T12:38:10;7.32;;;2.33;;
52776;SDS011;38656;54.260;20.822;2023-05-07T12:40:48;2.70;;;1.38;;
52776;SDS011;38656;54.260;20.822;2023-05-07T12:43:24;2.58;;;1.77;;
52776;SDS011;38656;54.260;20.822;2023-05-07T12:45:55;1.83;;;1.50;;
52776;SDS011;38656;54.260;20.822;2023-05-07T12:48:23;5.95;;;4.90;;
52776;SDS011;38656;54.260;20.822;2023-05-07T12:50:55;2.58;;;1.48;;
52776;SDS011;38656;54.260;20.822;2023-05-07T12:53:23;3.20;;;1.80;;
52776;SDS011;38656;54.260;20.822;2023-05-07T12:55:52;2.30;;;1.70;;
52776;SDS011;38656;54.260;20.822;2023-05-07T13:00:53;6.18;;;4.85;;
52776;SDS011;38656;54.260;20.822;2023-05-07T13:05:54;1.85;;;1.48;;
52776;SDS011;38656;54.260;20.822;2023-05-07T13:08:23;4.75;;;2.15;;
52776;SDS011;38656;54.260;20.822;2023-05-07T13:10:49;2.45;;;1.67;;
52776;SDS011;38656;54.260;20.822;2023-05-07T13:13:16;4.05;;;1.60;;
52776;SDS011;38656;54.260;20.822;2023-05-07T13:15:42;4.30;;;2.10;;
52776;SDS011;38656;54.260;20.822;2023-05-07T13:18:08;5.00;;;3.25;;
52776;SDS011;38656;54.260;20.822;2023-05-07T13:20:36;4.65;;;2.20;;
52776;SDS011;38656;54.260;20.822;2023-05-07T13:23:02;6.38;;;1.60;;
52776;SDS011;38656;54.260;20.822;2023-05-07T13:25:29;7.45;;;2.60;;
52776;SDS011;38656;54.260;20.822;2023-05-07T13:27:58;2.38;;;1.80;;
52776;SDS011;38656;54.260;20.822;2023-05-07T13:30:25;2.70;;;2.20;;
52776;SDS011;38656;54.260;20.822;2023-05-07T13:32:52;3.17;;;1.63;;
52776;SDS011;38656;54.260;20.822;2023-05-07T13:35:20;2.45;;;1.42;;
52776;SDS011;38656;54.260;20.822;2023-05-07T13:37:46;1.98;;;1.73;;
52776;SDS011;38656;54.260;20.822;2023-05-07T13:40:14;4.35;;;1.73;;
52776;SDS011;38656;54.260;20.822;2023-05-07T13:45:10;2.63;;;1.77;;
52776;SDS011;38656;54.260;20.822;2023-05-07T13:47:39;1.85;;;1.27;;
52776;SDS011;38656;54.260;20.822;2023-05-07T13:50:06;2.67;;;1.70;;
52776;SDS011;38656;54.260;20.822;2023-05-07T13:52:33;1.70;;;1.52;;
52776;SDS011;38656;54.260;20.822;2023-05-07T13:55:00;1.90;;;1.50;;
52776;SDS011;38656;54.260;20.822;2023-05-07T13:57:26;3.40;;;1.88;;
52776;SDS011;38656;54.260;20.822;2023-05-07T13:59:53;2.92;;;1.63;;
52776;SDS011;38656;54.260;20.822;2023-05-07T14:02:20;2.97;;;1.80;;
52776;SDS011;38656;54.260;20.822;2023-05-07T14:04:46;5.05;;;2.45;;
52776;SDS011;38656;54.260;20.822;2023-05-07T14:07:13;1.77;;;1.42;;
52776;SDS011;38656;54.260;20.822;2023-05-07T14:09:40;6.43;;;1.77;;
52776;SDS011;38656;54.260;20.822;2023-05-07T14:12:06;2.63;;;1.70;;
52776;SDS011;38656;54.260;20.822;2023-05-07T14:14:32;4.00;;;1.40;;
52776;SDS011;38656;54.260;20.822;2023-05-07T14:16:59;1.75;;;1.33;;
52776;SDS011;38656;54.260;20.822;2023-05-07T14:19:25;2.25;;;1.48;;
52776;SDS011;38656;54.260;20.822;2023-05-07T14:21:51;3.33;;;1.83;;
52776;SDS011;38656;54.260;20.822;2023-05-07T14:24:17;3.15;;;1.77;;
52776;SDS011;38656;54.260;20.822;2023-05-07T14:26:43;3.20;;;1.65;;
52776;SDS011;38656;54.260;20.822;2023-05-07T14:29:10;3.28;;;2.22;;
52776;SDS011;38656;54.260;20.822;2023-05-07T14:31:36;3.80;;;2.00;;
52776;SDS011;38656;54.260;20.822;2023-05-07T14:34:02;8.55;;;7.78;;
52776;SDS011;38656;54.260;20.822;2023-05-07T14:36:29;11.85;;;10.85;;
52776;SDS011;38656;54.260;20.822;2023-05-07T14:38:56;1.92;;;1.83;;
52776;SDS011;38656;54.260;20.822;2023-05-07T14:41:24;12.18;;;8.23;;
52776;SDS011;38656;54.260;20.822;2023-05-07T14:43:50;5.57;;;4.55;;
52776;SDS011;38656;54.260;20.822;2023-05-07T14:46:19;5.60;;;4.05;;
52776;SDS011;38656;54.260;20.822;2023-05-07T14:48:46;6.45;;;5.35;;
52776;SDS011;38656;54.260;20.822;2023-05-07T14:51:12;5.72;;;2.78;;
52776;SDS011;38656;54.260;20.822;2023-05-07T14:53:40;5.50;;;2.10;;
52776;SDS011;38656;54.260;20.822;2023-05-07T14:56:07;2.03;;;1.70;;
52776;SDS011;38656;54.260;20.822;2023-05-07T14:58:33;3.95;;;1.63;;
52776;SDS011;38656;54.260;20.822;2023-05-07T15:01:00;3.72;;;1.67;;